TNCB/BON METAR and TAF weather

Enter ICAO airport designator
Station Type Date Time Source
TNCB METAR 2024/04/15 08:55 UTC NOAA

TNCB 150855Z AUTO 09010KT 9999 FEW017/// 27/24 Q1009


Station Type Date Time Source
TNCB Decoded METAR 2024/04/15 08:55 UTC NOAA

Flamingo Airport, Bonaire, Netherlands Antilles (TNCB) 12-09N 068-17W 7M
Apr 15, 2024 - 04:55 AM EDT / 2024.04.15 0855 UTC
Wind: from the E (090 degrees) at 12 MPH (10 KT):0
Visibility: greater than 7 mile(s):0
Sky conditions: mostly clear
Temperature: 80 F (27 C)
Dew Point: 75 F (24 C)
Relative Humidity: 83%
Pressure (altimeter): 29.80 in. Hg (1009 hPa)
ob: TNCB 150855Z AUTO 09010KT 9999 FEW017/// 27/24 Q1009
cycle: 9

Station Type Date Time Source
TNCB TAF 2024/04/15 06:27 UTC NOAA